createdAt,value
2019-01-20T00:01:04.302Z,16.63
2019-01-20T00:05:10.698Z,19.13
2019-01-20T00:09:15.647Z,17.47
2019-01-20T00:13:21.001Z,17.07
2019-01-20T00:17:26.048Z,14.17
2019-01-20T00:21:31.218Z,18.13
2019-01-20T00:25:36.618Z,15.97
2019-01-20T00:29:41.643Z,15.97
2019-01-20T00:33:46.944Z,17.63
2019-01-20T00:37:52.078Z,14.73
2019-01-20T00:41:57.469Z,17.50
2019-01-20T00:46:02.590Z,18.20
2019-01-20T00:50:08.779Z,17.77
2019-01-20T00:54:14.092Z,17.37
2019-01-20T00:58:19.228Z,15.10
2019-01-20T01:02:24.560Z,17.80
2019-01-20T01:06:29.648Z,16.27
2019-01-20T01:10:34.779Z,14.77
2019-01-20T01:14:39.870Z,15.13
2019-01-20T01:18:44.900Z,13.77
2019-01-20T01:22:49.967Z,17.33
2019-01-20T01:26:55.080Z,13.63
2019-01-20T01:31:00.154Z,12.23
2019-01-20T01:35:05.826Z,14.17
2019-01-20T01:39:10.892Z,12.20
2019-01-20T01:43:15.905Z,13.03
2019-01-20T01:47:20.943Z,16.07
2019-01-20T01:51:26.093Z,12.63
2019-01-20T01:55:31.156Z,12.67
2019-01-20T01:59:36.242Z,11.40
2019-01-20T02:03:41.364Z,11.30
2019-01-20T02:07:46.583Z,10.93
2019-01-20T02:11:51.735Z,14.03
2019-01-20T02:15:56.788Z,14.30
2019-01-20T02:20:01.882Z,12.67
2019-01-20T02:24:07.023Z,11.00
2019-01-20T02:28:12.165Z,13.67
2019-01-20T02:32:17.158Z,9.90
2019-01-20T02:36:22.254Z,13.40
2019-01-20T02:40:27.646Z,12.45
2019-01-20T02:44:32.670Z,12.10
2019-01-20T02:48:37.703Z,13.53
2019-01-20T02:52:42.802Z,10.83
2019-01-20T02:56:47.847Z,13.67
2019-01-20T03:00:52.858Z,10.97
2019-01-20T03:04:58.032Z,10.60
2019-01-20T03:09:04.730Z,10.43
2019-01-20T03:13:09.956Z,12.60
2019-01-20T03:17:15.007Z,11.27
2019-01-20T03:21:19.973Z,13.93
2019-01-20T03:25:26.126Z,10.37
2019-01-20T03:29:31.206Z,11.90
2019-01-20T03:33:36.511Z,11.50
2019-01-20T03:37:41.574Z,11.63
2019-01-20T03:41:46.681Z,11.27
2019-01-20T03:45:51.748Z,13.93
2019-01-20T03:49:56.853Z,9.73
2019-01-20T03:54:01.972Z,11.23
2019-01-20T03:58:07.038Z,12.70
2019-01-20T04:02:12.048Z,9.53
2019-01-20T04:06:17.032Z,11.07
2019-01-20T04:10:22.068Z,11.90
2019-01-20T04:14:27.222Z,10.93
2019-01-20T04:18:32.190Z,12.00
2019-01-20T04:22:37.281Z,11.00
2019-01-20T04:26:42.275Z,11.53
2019-01-20T04:30:47.599Z,11.03
2019-01-20T04:34:52.682Z,8.97
2019-01-20T04:38:57.790Z,9.73
2019-01-20T04:43:02.840Z,11.07
2019-01-20T04:47:07.862Z,9.67
2019-01-20T04:51:13.042Z,8.38
2019-01-20T04:55:19.057Z,11.60
2019-01-20T04:59:24.054Z,10.23
2019-01-20T05:03:29.016Z,11.53
2019-01-20T05:07:34.106Z,9.80
2019-01-20T05:11:39.209Z,10.63
2019-01-20T05:15:44.297Z,11.10
2019-01-20T05:19:49.264Z,8.30
2019-01-20T05:23:54.564Z,10.33
2019-01-20T05:27:59.607Z,9.27
2019-01-20T05:32:04.709Z,9.70
2019-01-20T05:36:09.789Z,9.53
2019-01-20T05:40:17.245Z,9.20
2019-01-20T05:44:22.654Z,16.10
2019-01-20T05:48:27.789Z,9.33
2019-01-20T05:52:32.820Z,11.50
2019-01-20T05:56:37.869Z,11.03
2019-01-20T06:00:42.904Z,8.90
2019-01-20T06:04:47.995Z,10.20
2019-01-20T06:08:53.128Z,10.07
2019-01-20T06:12:58.176Z,10.60
2019-01-20T06:17:03.281Z,10.83
2019-01-20T06:21:08.410Z,10.57
2019-01-20T06:25:13.635Z,10.10
2019-01-20T06:29:19.080Z,9.33
2019-01-20T06:33:24.117Z,11.30
2019-01-20T06:37:29.185Z,10.53
2019-01-20T06:41:34.228Z,10.03
2019-01-20T06:45:39.324Z,10.13
2019-01-20T06:49:44.251Z,9.23
2019-01-20T06:53:49.253Z,9.63
2019-01-20T06:57:54.335Z,12.97
2019-01-20T07:01:59.868Z,9.00
2019-01-20T07:06:05.287Z,12.40
2019-01-20T07:10:10.911Z,8.73
2019-01-20T07:14:15.936Z,12.23
2019-01-20T07:18:21.070Z,10.17
2019-01-20T07:22:26.147Z,9.43
2019-01-20T07:26:31.279Z,11.87
2019-01-20T07:30:37.558Z,11.10
2019-01-20T07:34:42.611Z,11.77
2019-01-20T07:38:47.713Z,11.00
2019-01-20T07:42:52.787Z,12.30
2019-01-20T07:46:57.807Z,8.90
2019-01-20T07:51:03.076Z,12.10
2019-01-20T07:55:08.815Z,10.90
2019-01-20T07:59:14.719Z,9.73
2019-01-20T08:03:20.080Z,9.33
2019-01-20T08:07:27.222Z,10.30
2019-01-20T08:11:32.217Z,14.33
2019-01-20T08:15:37.369Z,11.83
2019-01-20T08:19:42.472Z,12.07
2019-01-20T08:23:47.411Z,9.97
2019-01-20T08:27:52.564Z,12.73
2019-01-20T08:31:57.662Z,13.47
2019-01-20T08:36:02.772Z,10.60
2019-01-20T08:40:11.097Z,11.00
2019-01-20T08:44:15.998Z,10.60
2019-01-20T08:48:22.067Z,10.53
2019-01-20T08:52:27.035Z,13.97
2019-01-20T08:56:32.136Z,14.53
2019-01-20T09:00:37.262Z,14.67
2019-01-20T09:04:42.273Z,10.30
2019-01-20T09:08:47.239Z,12.83
2019-01-20T09:12:52.425Z,15.38
2019-01-20T09:16:57.545Z,14.17
2019-01-20T09:21:02.611Z,13.53
2019-01-20T09:25:08.605Z,15.33
2019-01-20T09:29:13.616Z,14.40
2019-01-20T09:33:24.525Z,14.70
2019-01-20T09:37:25.525Z,18.33
2019-01-20T09:41:30.853Z,13.73
2019-01-20T09:45:36.594Z,16.37
2019-01-20T09:49:41.729Z,11.60
2019-01-20T09:53:47.304Z,15.20
2019-01-20T09:57:52.441Z,15.07
2019-01-20T10:01:57.599Z,35.30
2019-01-20T10:06:02.657Z,16.20
2019-01-20T10:10:09.622Z,14.90
2019-01-20T10:14:14.541Z,18.10
2019-01-20T10:18:19.849Z,20.50
2019-01-20T10:22:24.889Z,13.73
2019-01-20T10:26:29.946Z,14.73
2019-01-20T10:30:36.339Z,14.57
2019-01-20T10:34:41.563Z,21.70
2019-01-20T10:38:46.547Z,15.40
2019-01-20T10:42:51.609Z,17.60
2019-01-20T10:46:56.644Z,16.40
2019-01-20T10:51:01.771Z,20.97
2019-01-20T10:55:07.207Z,13.97
2019-01-20T10:59:12.184Z,16.53
2019-01-20T11:03:17.274Z,17.47
2019-01-20T11:07:22.176Z,17.80
2019-01-20T11:11:27.208Z,16.50
2019-01-20T11:15:32.208Z,16.73
2019-01-20T11:19:37.248Z,22.03
2019-01-20T11:23:42.321Z,17.10
2019-01-20T11:27:47.363Z,23.43
2019-01-20T11:31:52.395Z,19.40
2019-01-20T11:35:57.395Z,17.10
2019-01-20T11:40:02.447Z,17.87
2019-01-20T11:44:07.491Z,15.63
2019-01-20T11:48:12.540Z,18.23
2019-01-20T11:52:17.587Z,21.77
2019-01-20T11:56:22.500Z,17.10
2019-01-20T12:00:30.045Z,19.67
2019-01-20T12:04:35.147Z,21.93
2019-01-20T12:08:40.210Z,17.77
2019-01-20T12:12:47.837Z,23.70
2019-01-20T12:16:53.025Z,19.20
2019-01-20T12:20:59.603Z,17.90
2019-01-20T12:25:05.367Z,21.10
2019-01-20T12:29:10.481Z,18.00
2019-01-20T12:33:15.616Z,19.67
2019-01-20T12:37:21.081Z,19.17
2019-01-20T12:41:26.110Z,19.83
2019-01-20T12:45:31.178Z,23.00
2019-01-20T12:49:36.190Z,22.57
2019-01-20T12:53:41.284Z,21.97
2019-01-20T12:57:46.467Z,19.73
2019-01-20T13:01:51.474Z,23.07
2019-01-20T13:05:56.601Z,20.93
2019-01-20T13:10:01.719Z,24.27
2019-01-20T13:14:07.778Z,23.07
2019-01-20T13:18:12.889Z,22.17
2019-01-20T13:22:17.921Z,22.10
2019-01-20T13:26:22.943Z,23.90
2019-01-20T13:30:29.265Z,24.57
2019-01-20T13:34:34.377Z,22.87
2019-01-20T13:38:39.510Z,23.50
2019-01-20T13:42:44.903Z,20.53
2019-01-20T13:46:49.951Z,22.97
2019-01-20T13:50:55.220Z,23.00
2019-01-20T13:55:00.292Z,25.53
2019-01-20T13:59:05.460Z,21.40
2019-01-20T14:03:10.689Z,19.93
2019-01-20T14:07:15.706Z,19.17
2019-01-20T14:11:20.723Z,20.83
2019-01-20T14:15:25.779Z,22.03
2019-01-20T14:19:30.804Z,21.90
2019-01-20T14:23:35.904Z,17.33
2019-01-20T14:27:40.937Z,19.10
2019-01-20T14:31:46.069Z,18.03
2019-01-20T14:35:51.132Z,20.37
2019-01-20T14:39:56.219Z,19.73
2019-01-20T14:44:01.520Z,17.47
2019-01-20T14:48:06.598Z,17.57
2019-01-20T14:52:12.606Z,19.43
2019-01-20T14:56:19.131Z,20.17
2019-01-20T15:00:30.386Z,18.30
2019-01-20T15:04:42.952Z,17.07
2019-01-20T15:08:48.305Z,19.63
2019-01-20T15:12:53.971Z,17.73
2019-01-20T15:17:01.057Z,20.67
2019-01-20T15:21:16.073Z,19.57
2019-01-20T15:25:23.976Z,19.10
2019-01-20T15:29:40.266Z,19.53
2019-01-20T15:33:48.851Z,20.80
2019-01-20T15:38:23.800Z,18.57
2019-01-20T15:42:29.520Z,19.90
2019-01-20T15:51:30.676Z,18.70
2019-01-20T15:55:38.663Z,22.17
2019-01-20T16:00:13.156Z,22.63
2019-01-20T16:04:52.785Z,23.90
2019-01-20T16:09:04.186Z,19.83
2019-01-20T16:17:59.402Z,18.93
2019-01-20T16:27:30.925Z,20.83
2019-01-20T16:31:39.765Z,21.73
2019-01-20T16:35:42.908Z,22.07
2019-01-20T16:39:48.026Z,24.17
2019-01-20T16:43:53.102Z,24.40
2019-01-20T16:47:58.227Z,23.17
2019-01-20T16:52:05.695Z,60.13
2019-01-20T16:56:17.432Z,24.20
2019-01-20T17:00:30.102Z,27.83
2019-01-20T17:04:35.728Z,28.97
2019-01-20T17:08:40.848Z,25.50
2019-01-20T17:12:46.248Z,24.90
2019-01-20T17:16:51.412Z,23.57
2019-01-20T17:20:56.601Z,24.30
2019-01-20T17:25:01.624Z,23.40
2019-01-20T17:29:06.758Z,23.57
2019-01-20T17:33:13.042Z,25.80
2019-01-20T17:37:18.115Z,22.03
2019-01-20T17:41:23.504Z,151.87
2019-01-20T17:45:30.745Z,30.07
2019-01-20T17:49:35.908Z,23.23
2019-01-20T17:53:40.880Z,25.67
2019-01-20T17:57:46.136Z,23.87
2019-01-20T18:01:51.262Z,23.23
2019-01-20T18:05:56.597Z,29.33
2019-01-20T18:10:01.800Z,30.27
2019-01-20T18:14:07.908Z,23.57
2019-01-20T18:18:13.128Z,23.63
2019-01-20T18:22:18.107Z,25.33
2019-01-20T18:26:23.149Z,27.07
2019-01-20T18:30:29.361Z,26.87
2019-01-20T18:34:34.390Z,23.10
2019-01-20T18:38:39.891Z,23.73
2019-01-20T18:42:44.988Z,28.97
2019-01-20T18:46:50.107Z,29.23
2019-01-20T18:50:55.140Z,26.30
2019-01-20T18:55:00.569Z,28.70
2019-01-20T18:59:05.703Z,28.43
2019-01-20T19:03:10.960Z,27.80
2019-01-20T19:07:16.088Z,26.63
2019-01-20T19:11:21.312Z,23.97
2019-01-20T19:15:26.445Z,28.40
2019-01-20T19:19:31.507Z,30.43
2019-01-20T19:23:36.667Z,24.30
2019-01-20T19:27:41.692Z,25.10
2019-01-20T19:31:46.996Z,26.20
2019-01-20T19:35:52.051Z,20.67
2019-01-20T19:39:57.147Z,24.80
2019-01-20T19:44:02.150Z,24.57
2019-01-20T19:48:12.993Z,31.10
2019-01-20T19:52:14.043Z,27.50
2019-01-20T19:56:19.152Z,32.53
2019-01-20T20:00:24.979Z,33.13
2019-01-20T20:04:30.040Z,35.40
2019-01-20T20:08:35.422Z,33.40
2019-01-20T20:12:41.337Z,40.40
2019-01-20T20:16:47.490Z,35.83
2019-01-20T20:20:52.587Z,39.00
2019-01-20T20:24:57.606Z,36.00
2019-01-20T20:29:02.918Z,39.40
2019-01-20T20:33:08.195Z,37.37
2019-01-20T20:37:13.344Z,37.30
2019-01-20T20:41:18.420Z,37.97
2019-01-20T20:45:24.119Z,46.07
2019-01-20T20:49:29.461Z,43.60
2019-01-20T20:53:34.587Z,40.67
2019-01-20T20:57:39.681Z,45.17
2019-01-20T21:01:44.819Z,39.60
2019-01-20T21:05:50.010Z,39.03
2019-01-20T21:09:56.476Z,43.80
2019-01-20T21:14:01.675Z,50.93
2019-01-20T21:18:06.892Z,41.53
2019-01-20T21:22:12.042Z,40.70
2019-01-20T21:26:17.085Z,39.60
2019-01-20T21:30:24.029Z,41.87
2019-01-20T21:34:29.200Z,62.20
2019-01-20T21:38:34.367Z,62.23
2019-01-20T21:42:39.511Z,64.17
2019-01-20T21:46:45.373Z,55.33
2019-01-20T21:50:50.859Z,57.37
2019-01-20T21:54:56.008Z,54.27
2019-01-20T21:59:02.429Z,49.13
2019-01-20T22:03:07.490Z,58.93
2019-01-20T22:07:12.607Z,61.17
2019-01-20T22:11:17.787Z,58.23
2019-01-20T22:15:22.948Z,55.23
2019-01-20T22:19:28.217Z,53.60
2019-01-20T22:23:33.270Z,55.20
2019-01-20T22:27:38.378Z,52.30
2019-01-20T22:31:43.543Z,54.07
2019-01-20T22:35:48.695Z,53.73
2019-01-20T22:39:53.842Z,53.53
2019-01-20T22:43:59.034Z,55.93
2019-01-20T22:48:04.098Z,55.85
2019-01-20T22:52:10.213Z,50.70
2019-01-20T22:56:15.346Z,52.73
2019-01-20T23:01:19.330Z,50.67
2019-01-20T23:05:24.409Z,51.67
2019-01-20T23:09:29.583Z,59.00
2019-01-20T23:13:34.705Z,54.17
2019-01-20T23:17:39.780Z,55.13
2019-01-20T23:21:44.950Z,51.47
2019-01-20T23:25:49.980Z,54.97
2019-01-20T23:29:55.500Z,50.10
2019-01-20T23:34:00.559Z,57.67
2019-01-20T23:38:05.707Z,48.67
2019-01-20T23:42:10.894Z,54.73
2019-01-20T23:46:15.917Z,50.17
2019-01-20T23:50:21.055Z,52.63
2019-01-20T23:54:26.186Z,57.13
2019-01-20T23:58:31.315Z,59.07
